createdAt,value
2023-04-03T00:03:49.510Z,2.80
2023-04-03T00:08:52.336Z,5.10
2023-04-03T00:13:55.571Z,3.50
2023-04-03T00:18:58.262Z,2.40
2023-04-03T00:24:01.292Z,4.10
2023-04-03T00:29:04.023Z,2.90
2023-04-03T00:34:06.964Z,2.40
2023-04-03T00:39:09.671Z,4.40
2023-04-03T00:44:41.990Z,2.40
2023-04-03T00:49:46.605Z,2.60
2023-04-03T00:54:52.473Z,3.20
2023-04-03T01:00:01.212Z,3.00
2023-04-03T01:05:05.485Z,5.90
2023-04-03T01:10:11.793Z,2.50
2023-04-03T01:15:17.249Z,3.30
2023-04-03T01:20:29.012Z,2.60
2023-04-03T01:25:31.711Z,4.80
2023-04-03T01:30:42.568Z,2.60
2023-04-03T01:35:45.550Z,4.90
2023-04-03T01:40:48.364Z,3.10
2023-04-03T01:45:51.104Z,4.30
2023-04-03T01:50:54.931Z,14.60
2023-04-03T01:55:57.625Z,8.90
2023-04-03T02:01:00.444Z,10.80
2023-04-03T02:06:03.577Z,5.80
2023-04-03T02:11:06.501Z,7.60
2023-04-03T02:16:13.538Z,8.10
2023-04-03T02:21:16.431Z,7.00
2023-04-03T02:26:19.114Z,6.10
2023-04-03T02:31:22.143Z,4.10
2023-04-03T02:36:24.842Z,5.00
2023-04-03T02:41:34.597Z,3.90
2023-04-03T02:46:37.615Z,3.60
2023-04-03T02:51:40.552Z,4.50
2023-04-03T02:56:43.276Z,3.50
2023-04-03T03:01:46.500Z,5.30
2023-04-03T03:06:49.238Z,4.00
2023-04-03T03:11:51.988Z,4.00
2023-04-03T03:16:54.776Z,4.50
2023-04-03T03:21:58.031Z,3.90
2023-04-03T03:27:00.890Z,4.30
2023-04-03T03:32:03.710Z,6.70
2023-04-03T03:37:06.596Z,4.10
2023-04-03T03:42:09.278Z,3.50
2023-04-03T03:47:12.143Z,3.40
2023-04-03T03:52:15.093Z,6.40
2023-04-03T03:57:17.878Z,5.50
2023-04-03T04:02:20.587Z,3.10
2023-04-03T04:07:23.777Z,3.80
2023-04-03T04:12:26.453Z,2.80
2023-04-03T04:17:29.150Z,5.10
2023-04-03T04:22:32.100Z,7.00
2023-04-03T04:27:35.217Z,4.90
2023-04-03T04:32:38.299Z,8.20
2023-04-03T04:37:41.076Z,6.30
2023-04-03T04:42:43.740Z,8.90
2023-04-03T04:47:46.842Z,10.80
2023-04-03T04:52:49.531Z,6.40
2023-04-03T04:57:52.427Z,7.70
2023-04-03T05:02:55.633Z,6.00
2023-04-03T05:07:58.375Z,4.00
2023-04-03T05:13:01.177Z,4.30
2023-04-03T05:18:04.042Z,3.00
2023-04-03T05:23:07.162Z,7.80
2023-04-03T05:28:09.856Z,5.40
2023-04-03T05:33:12.736Z,6.10
2023-04-03T05:38:16.158Z,5.30
2023-04-03T05:43:18.985Z,4.40
2023-04-03T05:48:21.832Z,4.70
2023-04-03T05:53:30.529Z,3.00
2023-04-03T05:58:33.324Z,5.00
2023-04-03T06:03:37.843Z,2.40
2023-04-03T06:08:42.410Z,3.80
2023-04-03T06:13:49.294Z,3.50
2023-04-03T06:19:13.716Z,2.60
2023-04-03T06:24:19.200Z,2.50
2023-04-03T06:29:22.625Z,5.00
2023-04-03T06:34:25.809Z,3.30
2023-04-03T06:39:28.715Z,4.40
2023-04-03T06:44:34.899Z,2.10
2023-04-03T06:59:51.645Z,4.70
2023-04-03T07:04:54.863Z,2.80
2023-04-03T07:09:57.777Z,3.60
2023-04-03T07:15:01.341Z,5.20
2023-04-03T07:20:06.089Z,7.80
2023-04-03T07:25:09.053Z,4.20
2023-04-03T07:30:15.174Z,4.80
2023-04-03T07:35:20.521Z,6.60
2023-04-03T07:40:27.565Z,11.70
2023-04-03T07:45:33.278Z,4.90
2023-04-03T07:50:37.753Z,4.30
2023-04-03T07:55:46.033Z,4.80
2023-04-03T08:06:45.711Z,10.10
2023-04-03T08:11:54.752Z,2.30
2023-04-03T08:17:00.310Z,2.50
2023-04-03T08:22:12.199Z,2.60
2023-04-03T08:27:15.396Z,2.10
2023-04-03T08:32:21.229Z,3.20
2023-04-03T08:37:23.998Z,3.20
2023-04-03T08:42:58.020Z,3.80
2023-04-03T08:48:08.503Z,3.20
2023-04-03T08:53:28.782Z,3.70
2023-04-03T08:58:51.297Z,3.80
2023-04-03T09:03:55.987Z,1.90
2023-04-03T09:09:25.782Z,2.70
2023-04-03T09:15:27.941Z,4.10
2023-04-03T09:25:45.926Z,2.90
2023-04-03T09:30:48.744Z,3.80
2023-04-03T09:35:52.946Z,3.30
2023-04-03T09:41:29.908Z,2.20
2023-04-03T09:46:36.417Z,4.30
2023-04-03T09:51:39.312Z,3.80
2023-04-03T09:56:42.308Z,3.50
2023-04-03T10:01:59.812Z,3.20
2023-04-03T10:07:02.675Z,5.70
2023-04-03T10:12:11.640Z,6.90
2023-04-03T10:17:21.092Z,4.00
2023-04-03T10:22:42.948Z,4.00
2023-04-03T10:27:50.106Z,2.70
2023-04-03T10:33:33.749Z,2.20
2023-04-03T10:39:18.542Z,2.90
2023-04-03T10:45:04.439Z,3.60
2023-04-03T10:50:23.677Z,2.60
2023-04-03T10:55:38.832Z,2.90
2023-04-03T11:00:48.993Z,7.30
2023-04-03T11:05:55.130Z,4.00
2023-04-03T11:11:13.776Z,2.10
2023-04-03T11:16:31.938Z,2.40
2023-04-03T11:21:45.661Z,3.30
2023-04-03T11:26:56.897Z,2.50
2023-04-03T11:32:38.373Z,3.40
2023-04-03T11:37:49.167Z,2.50
2023-04-03T11:43:06.366Z,3.70
2023-04-03T11:48:34.924Z,2.90
2023-04-03T11:53:41.952Z,3.10
2023-04-03T11:59:21.624Z,2.40
2023-04-03T12:04:27.903Z,2.20
2023-04-03T12:09:56.519Z,3.80
2023-04-03T12:15:20.802Z,2.10
2023-04-03T12:20:57.802Z,2.40
2023-04-03T12:26:42.105Z,2.20
2023-04-03T12:32:05.521Z,2.30
2023-04-03T12:37:30.309Z,9.40
2023-04-03T12:42:42.828Z,43.90
2023-04-03T12:47:49.124Z,16.60
2023-04-03T12:53:06.322Z,13.80
2023-04-03T12:58:22.524Z,3.50
2023-04-03T13:03:29.843Z,9.30
2023-04-03T13:08:33.431Z,9.10
2023-04-03T13:13:36.835Z,4.80
2023-04-03T13:18:39.828Z,4.20
2023-04-03T13:23:48.189Z,3.00
2023-04-03T13:28:52.668Z,5.20
2023-04-03T13:34:14.633Z,5.10
2023-04-03T13:39:17.417Z,3.00
2023-04-03T13:44:23.270Z,3.00
2023-04-03T13:49:41.304Z,3.50
2023-04-03T13:54:48.815Z,3.10
2023-04-03T13:59:52.097Z,5.50
2023-04-03T14:05:01.367Z,2.30
2023-04-03T14:10:04.452Z,2.70
2023-04-03T14:15:18.215Z,2.80
2023-04-03T14:20:25.901Z,1.90
2023-04-03T14:25:28.702Z,3.30
2023-04-03T14:30:35.042Z,16.80
2023-04-03T14:35:38.394Z,37.70
2023-04-03T14:40:42.428Z,22.00
2023-04-03T14:45:45.409Z,32.10
2023-04-03T14:51:04.625Z,11.20
2023-04-03T14:56:14.572Z,6.80
2023-04-03T15:01:19.218Z,5.00
2023-04-03T15:06:23.323Z,2.40
2023-04-03T15:11:27.171Z,5.30
2023-04-03T15:16:30.150Z,4.70
2023-04-03T15:21:32.921Z,4.70
2023-04-03T15:26:36.650Z,3.90
2023-04-03T15:31:39.572Z,4.60
2023-04-03T15:36:42.382Z,5.80
2023-04-03T15:41:46.781Z,4.00
2023-04-03T15:46:52.405Z,4.30
2023-04-03T15:51:55.633Z,3.30
2023-04-03T15:56:58.778Z,3.20
2023-04-03T16:02:04.811Z,5.40
2023-04-03T16:07:07.594Z,5.50
2023-04-03T16:12:11.891Z,6.50
2023-04-03T16:17:14.761Z,7.60
2023-04-03T16:22:17.470Z,13.90
2023-04-03T16:27:20.568Z,22.30
2023-04-03T16:32:25.433Z,29.40
2023-04-03T16:37:28.875Z,33.50
2023-04-03T16:42:33.967Z,19.30
2023-04-03T16:47:37.661Z,17.00
2023-04-03T16:52:40.490Z,10.70
2023-04-03T16:57:43.419Z,6.80
2023-04-03T17:02:46.355Z,5.10
2023-04-03T17:07:49.808Z,5.50
2023-04-03T17:12:52.559Z,4.60
2023-04-03T17:17:55.519Z,3.30
2023-04-03T17:22:58.683Z,3.00
2023-04-03T17:28:01.362Z,4.00
2023-04-03T17:33:04.209Z,3.40
2023-04-03T17:38:07.078Z,3.40
2023-04-03T17:43:09.763Z,3.50
2023-04-03T17:48:12.740Z,4.20
2023-04-03T17:53:15.645Z,3.10
2023-04-03T17:58:18.374Z,4.90
2023-04-03T18:03:21.256Z,3.80
2023-04-03T18:08:23.996Z,5.30
2023-04-03T18:13:27.303Z,6.70
2023-04-03T18:18:30.017Z,5.10
2023-04-03T18:23:36.243Z,3.60
2023-04-03T18:28:42.266Z,4.70
2023-04-03T18:33:45.051Z,2.90
2023-04-03T18:38:47.850Z,4.50
2023-04-03T18:43:50.835Z,3.70
2023-04-03T18:48:54.638Z,3.00
2023-04-03T18:53:57.422Z,6.30
2023-04-03T18:59:00.903Z,4.70
2023-04-03T19:04:04.523Z,5.80
2023-04-03T19:09:08.097Z,5.40
2023-04-03T19:14:16.692Z,4.60
2023-04-03T19:19:19.905Z,4.40
2023-04-03T19:24:22.790Z,3.70
2023-04-03T19:29:25.730Z,4.00
2023-04-03T19:34:28.498Z,3.10
2023-04-03T19:39:35.116Z,5.50
2023-04-03T19:44:38.513Z,3.30
2023-04-03T19:49:41.432Z,26.30
2023-04-03T19:54:44.224Z,15.10
2023-04-03T19:59:46.889Z,17.60
2023-04-03T20:04:49.691Z,11.40
2023-04-03T20:09:52.517Z,7.00
2023-04-03T20:14:55.259Z,5.30
2023-04-03T20:20:01.616Z,4.30
2023-04-03T20:25:10.597Z,5.20
2023-04-03T20:30:14.844Z,5.30
2023-04-03T20:35:22.171Z,6.20
2023-04-03T20:40:25.876Z,3.70
2023-04-03T20:45:29.634Z,3.50
2023-04-03T20:50:34.033Z,5.80
2023-04-03T20:55:37.376Z,5.20
2023-04-03T21:00:41.071Z,4.70
2023-04-03T21:05:44.365Z,9.00
2023-04-03T21:11:24.498Z,7.90
2023-04-03T21:16:27.336Z,5.50
2023-04-03T21:21:31.236Z,7.10
2023-04-03T21:26:34.413Z,11.90
2023-04-03T21:32:06.807Z,6.10
2023-04-03T21:37:11.810Z,8.20
2023-04-03T21:42:14.546Z,6.70
2023-04-03T21:47:17.281Z,9.30
2023-04-03T21:52:19.925Z,8.40
2023-04-03T21:57:23.798Z,5.60
2023-04-03T22:02:27.154Z,7.10
2023-04-03T22:07:29.849Z,7.70
2023-04-03T22:12:32.658Z,7.00
2023-04-03T22:17:35.349Z,11.50
2023-04-03T22:22:38.009Z,9.30
2023-04-03T22:27:40.685Z,12.80
2023-04-03T22:32:43.509Z,13.20
2023-04-03T22:37:46.195Z,14.80
2023-04-03T22:42:49.013Z,15.30
2023-04-03T22:47:51.892Z,12.30
2023-04-03T22:52:54.574Z,14.10
2023-04-03T22:57:57.265Z,13.80
2023-04-03T23:03:01.643Z,10.60
2023-04-03T23:08:04.423Z,10.40
2023-04-03T23:13:07.074Z,14.10
2023-04-03T23:18:10.016Z,12.60
2023-04-03T23:23:12.747Z,11.10
2023-04-03T23:28:16.248Z,11.90
2023-04-03T23:33:18.890Z,13.60
2023-04-03T23:38:21.624Z,7.70
2023-04-03T23:43:24.310Z,6.60
2023-04-03T23:48:27.009Z,7.80
2023-04-03T23:53:29.760Z,6.60
2023-04-03T23:58:32.465Z,8.70
